Time;durP1;ratioP1;P1;durP2;ratioP2;P2;SDS_P1;SDS_P2;PMS_P1;PMS_P2;Temp;Humidity;BMP_temperature;BMP_pressure;BME280_temperature;BME280_humidity;BME280_pressure;Samples;Min_cycle;Max_cycle;Signal;HPM_P1;HPM_P2
2020/12/09 00:00:52;;;;;;;35.92;20.10;;;5.00;99.90;;;;;;5017081;28;20444;-76
2020/12/09 00:03:18;;;;;;;37.80;20.85;;;5.00;99.90;;;;;;5006829;28;20048;-75
2020/12/09 00:05:44;;;;;;;38.53;21.45;;;5.00;99.90;;;;;;5018399;28;20061;-76
2020/12/09 00:08:11;;;;;;;41.40;22.10;;;5.00;99.90;;;;;;5023756;28;20061;-75
2020/12/09 00:10:38;;;;;;;43.30;23.17;;;5.00;99.90;;;;;;5012757;28;20053;-77
2020/12/09 00:13:04;;;;;;;43.70;22.88;;;5.00;99.90;;;;;;5020945;28;20038;-75
2020/12/09 00:15:30;;;;;;;43.65;22.52;;;5.00;99.90;;;;;;5018494;28;20511;-75
2020/12/09 00:17:56;;;;;;;38.75;21.20;;;5.10;99.90;;;;;;5021294;28;20038;-75
2020/12/09 00:20:22;;;;;;;51.13;22.77;;;5.10;99.90;;;;;;5017653;28;20033;-76
2020/12/09 00:22:48;;;;;;;45.90;22.42;;;5.10;99.90;;;;;;5018261;28;20048;-76
2020/12/09 00:25:14;;;;;;;39.50;22.50;;;5.10;99.90;;;;;;5023171;28;20038;-75
2020/12/09 00:27:40;;;;;;;42.47;22.48;;;5.00;99.90;;;;;;5019990;28;20041;-76
2020/12/09 00:30:07;;;;;;;36.08;21.48;;;5.00;99.90;;;;;;5024333;28;20044;-76
2020/12/09 00:32:37;;;;;;;39.33;21.58;;;5.00;99.90;;;;;;5016314;28;20476;-76
2020/12/09 00:35:07;;;;;;;38.85;21.52;;;5.00;99.90;;;;;;5018015;28;20030;-75
2020/12/09 00:37:34;;;;;;;36.78;21.17;;;5.10;99.90;;;;;;5021525;28;20033;-76
2020/12/09 00:40:00;;;;;;;38.38;20.88;;;5.10;99.90;;;;;;5018282;28;20528;-76
2020/12/09 00:42:26;;;;;;;40.45;21.08;;;5.10;99.90;;;;;;5016277;28;20125;-73
2020/12/09 00:44:52;;;;;;;40.22;21.52;;;5.10;99.90;;;;;;5015861;28;20041;-76
2020/12/09 00:47:18;;;;;;;39.05;20.67;;;5.10;99.90;;;;;;5016411;28;20034;-77
2020/12/09 00:49:58;;;;;;;41.53;22.25;;;5.10;99.90;;;;;;5016695;28;20041;-76
2020/12/09 00:52:24;;;;;;;41.42;22.08;;;5.10;99.90;;;;;;5015695;28;20030;-76
2020/12/09 00:54:50;;;;;;;39.42;21.75;;;5.10;99.90;;;;;;5012667;28;20057;-75
2020/12/09 00:57:22;;;;;;;38.65;21.75;;;5.10;99.90;;;;;;5014034;28;20143;-75
2020/12/09 00:59:48;;;;;;;40.50;21.83;;;5.10;99.90;;;;;;5018336;28;20090;-77
2020/12/09 01:02:13;;;;;;;44.92;23.17;;;6.00;99.90;;;;;;5012158;28;20117;-77
2020/12/09 01:04:40;;;;;;;40.05;22.25;;;5.00;99.90;;;;;;5018288;28;20421;-76
2020/12/09 01:07:05;;;;;;;40.17;21.75;;;5.00;99.90;;;;;;5021772;28;20060;-77
2020/12/09 01:09:31;;;;;;;40.65;22.00;;;5.00;99.90;;;;;;5016227;28;20495;-77
2020/12/09 01:12:03;;;;;;;40.28;21.35;;;5.00;99.90;;;;;;5012935;28;20045;-76
2020/12/09 01:14:29;;;;;;;39.22;22.02;;;5.00;99.90;;;;;;5012954;28;20037;-76
2020/12/09 01:16:55;;;;;;;40.53;21.35;;;5.00;99.90;;;;;;5017794;28;20065;-75
2020/12/09 01:19:22;;;;;;;42.50;22.33;;;5.00;99.90;;;;;;5018462;28;20037;-77
2020/12/09 01:21:48;;;;;;;40.22;21.08;;;5.00;99.90;;;;;;5016308;28;20041;-78
2020/12/09 01:24:13;;;;;;;41.70;22.00;;;5.00;99.90;;;;;;5014818;28;20424;-76
2020/12/09 01:26:39;;;;;;;43.38;21.98;;;5.00;99.90;;;;;;5008667;28;20549;-76
2020/12/09 01:29:05;;;;;;;40.92;21.85;;;5.00;99.90;;;;;;5014037;28;20392;-76
2020/12/09 01:31:30;;;;;;;39.90;22.10;;;5.00;99.90;;;;;;5017418;28;20515;-75
2020/12/09 01:33:56;;;;;;;43.88;22.40;;;5.00;99.90;;;;;;5011679;28;20458;-76
2020/12/09 01:36:25;;;;;;;42.28;21.92;;;5.00;99.90;;;;;;5017624;28;20044;-75
2020/12/09 01:38:51;;;;;;;48.67;22.23;;;4.90;99.90;;;;;;5013984;28;20104;-76
2020/12/09 01:41:18;;;;;;;42.25;21.60;;;5.00;99.90;;;;;;5015648;28;20026;-75
2020/12/09 01:43:45;;;;;;;43.10;21.85;;;5.00;99.90;;;;;;5016574;28;20026;-77
2020/12/09 01:46:16;;;;;;;43.00;22.80;;;5.00;99.90;;;;;;5013544;28;20617;-75
2020/12/09 01:48:43;;;;;;;42.90;21.73;;;5.10;99.90;;;;;;5014365;28;20044;-75
2020/12/09 01:51:11;;;;;;;43.88;21.40;;;5.10;99.90;;;;;;5019957;28;20533;-75
2020/12/09 01:53:36;;;;;;;43.67;22.25;;;5.10;99.90;;;;;;5010943;28;20072;-76
2020/12/09 01:56:02;;;;;;;45.92;23.08;;;5.10;99.90;;;;;;5014243;28;20108;-75
2020/12/09 01:58:28;;;;;;;46.47;21.85;;;5.00;99.90;;;;;;5008562;28;20045;-75
2020/12/09 02:00:54;;;;;;;43.60;21.77;;;5.00;99.90;;;;;;5011802;28;20088;-75
2020/12/09 02:03:20;;;;;;;47.00;22.17;;;5.00;99.90;;;;;;5002584;28;20041;-74
2020/12/09 02:05:45;;;;;;;43.13;21.25;;;5.00;99.90;;;;;;5008295;28;20030;-75
2020/12/09 02:08:12;;;;;;;47.45;22.95;;;5.00;99.90;;;;;;5010158;28;20478;-75
2020/12/09 02:10:38;;;;;;;45.38;22.15;;;5.00;99.90;;;;;;5014154;28;20056;-74
2020/12/09 02:13:03;;;;;;;44.42;21.92;;;5.00;99.90;;;;;;5009952;28;20507;-76
2020/12/09 02:15:29;;;;;;;47.15;21.73;;;6.20;99.90;;;;;;5012691;28;20064;-75
2020/12/09 02:17:54;;;;;;;51.55;22.73;;;5.00;99.90;;;;;;5007324;28;20096;-75
2020/12/09 02:20:20;;;;;;;48.17;23.40;;;5.00;99.90;;;;;;5014933;28;20110;-75
2020/12/09 02:22:54;;;;;;;44.60;22.02;;;5.10;99.90;;;;;;5014891;28;20037;-75
2020/12/09 02:25:19;;;;;;;46.63;22.13;;;5.10;99.90;;;;;;5022037;28;20044;-74
2020/12/09 02:27:46;;;;;;;43.67;20.63;;;;;;;;;;5010070;28;20042;-74
2020/12/09 02:30:12;;;;;;;42.33;20.90;;;5.20;99.90;;;;;;5011409;28;20665;-74
2020/12/09 02:32:38;;;;;;;41.65;19.90;;;5.30;99.90;;;;;;5019015;28;20091;-74
2020/12/09 02:35:04;;;;;;;45.47;21.58;;;5.20;99.90;;;;;;5013466;28;20852;-75
2020/12/09 02:37:33;;;;;;;45.70;22.33;;;5.60;99.90;;;;;;5010687;28;20137;-75
2020/12/09 02:39:59;;;;;;;47.88;23.45;;;5.20;99.90;;;;;;5012905;28;20033;-75
2020/12/09 02:42:25;;;;;;;41.47;20.73;;;5.20;99.90;;;;;;5014740;28;20056;-75
2020/12/09 02:44:51;;;;;;;44.50;22.27;;;5.20;99.90;;;;;;5012830;28;20039;-75
2020/12/09 02:47:16;;;;;;;39.55;20.95;;;5.10;99.90;;;;;;5003852;28;20073;-75
2020/12/09 02:49:42;;;;;;;43.63;20.35;;;5.10;99.90;;;;;;5019719;28;20396;-75
2020/12/09 02:52:08;;;;;;;45.75;21.25;;;5.00;99.90;;;;;;5012488;28;20045;-75
2020/12/09 02:54:34;;;;;;;46.22;22.30;;;5.00;99.90;;;;;;5015705;28;20631;-75
2020/12/09 02:57:00;;;;;;;45.83;21.38;;;5.00;99.90;;;;;;5008206;28;20053;-74
2020/12/09 02:59:25;;;;;;;48.95;22.75;;;5.00;99.90;;;;;;5013667;28;20084;-75
2020/12/09 03:01:51;;;;;;;48.88;21.42;;;4.90;99.90;;;;;;5011056;28;20076;-75
2020/12/09 03:04:17;;;;;;;46.30;21.65;;;4.80;99.90;;;;;;5010959;28;20490;-76
2020/12/09 03:06:42;;;;;;;43.67;20.83;;;4.80;99.90;;;;;;5011369;28;20474;-75
2020/12/09 03:09:09;;;;;;;43.42;20.75;;;4.80;99.90;;;;;;5009858;28;20491;-75
2020/12/09 03:11:35;;;;;;;41.33;20.20;;;5.20;99.90;;;;;;5015388;28;20060;-75
2020/12/09 03:14:00;;;;;;;41.83;21.25;;;4.80;99.90;;;;;;5009334;28;20038;-76
2020/12/09 03:16:26;;;;;;;43.85;20.13;;;4.80;99.90;;;;;;5011211;28;20049;-76
2020/12/09 03:18:52;;;;;;;40.15;20.25;;;4.80;99.90;;;;;;5012906;28;20037;-74
2020/12/09 03:21:18;;;;;;;43.03;20.70;;;4.80;99.90;;;;;;5015610;28;20121;-75
2020/12/09 03:23:44;;;;;;;44.67;20.95;;;4.90;99.90;;;;;;5018562;28;20129;-75
2020/12/09 03:26:10;;;;;;;40.55;19.30;;;4.90;99.90;;;;;;5014174;28;20030;-75
2020/12/09 03:28:36;;;;;;;44.55;21.75;;;4.90;99.90;;;;;;5016845;28;20565;-76
2020/12/09 03:31:03;;;;;;;43.63;21.02;;;4.90;99.90;;;;;;5017739;28;20088;-74
2020/12/09 03:33:32;;;;;;;45.70;21.80;;;4.90;99.90;;;;;;5010934;28;20136;-75
2020/12/09 03:35:58;;;;;;;42.85;20.75;;;4.80;99.90;;;;;;5012242;28;20121;-75
2020/12/09 03:38:24;;;;;;;44.50;21.05;;;4.80;99.90;;;;;;5026007;28;20057;-76
2020/12/09 03:40:50;;;;;;;45.80;21.17;;;4.80;99.90;;;;;;5016001;28;20472;-76
2020/12/09 03:43:16;;;;;;;46.20;21.38;;;4.80;99.90;;;;;;5014437;28;20040;-76
2020/12/09 03:45:42;;;;;;;44.55;20.65;;;4.90;99.90;;;;;;5015473;28;20576;-75
2020/12/09 03:48:08;;;;;;;48.80;23.25;;;4.70;99.90;;;;;;5013100;28;20109;-76
2020/12/09 03:50:34;;;;;;;43.65;20.65;;;4.70;99.90;;;;;;5015814;28;20037;-78
2020/12/09 03:53:00;;;;;;;43.97;21.42;;;4.70;99.90;;;;;;5017027;28;20034;-74
2020/12/09 03:55:25;;;;;;;49.20;22.05;;;4.70;99.90;;;;;;5016509;28;20586;-75
2020/12/09 03:57:51;;;;;;;46.42;21.10;;;4.80;99.90;;;;;;5014833;28;20375;-75
2020/12/09 04:00:17;;;;;;;45.72;21.67;;;4.70;99.90;;;;;;5013299;28;20522;-74
2020/12/09 04:02:44;;;;;;;46.50;21.35;;;4.60;99.90;;;;;;5019531;28;20092;-75
2020/12/09 04:05:10;;;;;;;46.72;20.77;;;4.70;99.90;;;;;;5011327;28;20038;-75
2020/12/09 04:07:36;;;;;;;46.53;21.40;;;4.80;99.90;;;;;;5018051;28;20529;-75
2020/12/09 04:10:04;;;;;;;40.65;20.80;;;4.80;99.90;;;;;;5020234;28;20080;-74
2020/12/09 04:12:29;;;;;;;44.03;21.20;;;4.70;99.90;;;;;;5016738;28;20030;-74
2020/12/09 04:14:55;;;;;;;47.25;21.30;;;4.70;99.90;;;;;;5014924;28;20461;-76
2020/12/09 04:17:21;;;;;;;44.17;20.38;;;4.70;99.90;;;;;;5017321;28;20037;-76
2020/12/09 04:19:47;;;;;;;44.03;21.02;;;4.70;99.90;;;;;;5017369;28;20079;-76
2020/12/09 04:22:14;;;;;;;44.33;21.88;;;4.80;99.90;;;;;;5010436;28;20034;-75
2020/12/09 04:24:40;;;;;;;46.35;19.40;;;4.80;99.90;;;;;;5013244;28;20038;-75
2020/12/09 04:27:05;;;;;;;41.10;19.42;;;4.80;99.90;;;;;;5015543;28;20498;-74
2020/12/09 04:29:31;;;;;;;45.38;20.27;;;4.80;99.90;;;;;;5012448;28;20240;-75
2020/12/09 04:31:57;;;;;;;41.45;19.52;;;4.70;99.90;;;;;;5011205;28;20044;-74
2020/12/09 04:34:23;;;;;;;42.47;20.67;;;4.80;99.90;;;;;;5010155;28;20496;-76
2020/12/09 04:36:49;;;;;;;43.65;20.65;;;4.70;99.90;;;;;;5011048;28;20463;-74
2020/12/09 04:39:17;;;;;;;44.45;19.55;;;4.70;99.90;;;;;;5018406;28;20033;-76
2020/12/09 04:41:43;;;;;;;46.33;21.17;;;4.60;99.90;;;;;;5018615;28;20034;-76
2020/12/09 04:44:09;;;;;;;40.78;21.10;;;4.70;99.90;;;;;;5013973;28;20065;-77
2020/12/09 04:46:40;;;;;;;43.25;21.42;;;4.70;99.90;;;;;;5015851;28;20069;-77
2020/12/09 04:49:16;;;;;;;39.38;19.58;;;4.70;99.90;;;;;;5014283;28;20057;-76
2020/12/09 04:51:59;;;;;;;34.38;17.10;;;4.70;99.90;;;;;;5014351;28;20081;-76
2020/12/09 04:54:40;;;;;;;37.47;18.00;;;4.80;99.90;;;;;;5014215;28;20434;-75
2020/12/09 04:57:10;;;;;;;40.28;19.58;;;4.80;99.90;;;;;;5014937;28;20553;-76
2020/12/09 04:59:41;;;;;;;36.65;17.67;;;4.80;99.90;;;;;;5010481;28;20038;-76
2020/12/09 05:02:10;;;;;;;34.85;18.15;;;4.80;99.90;;;;;;5024881;28;20560;-76
2020/12/09 05:04:37;;;;;;;35.05;19.13;;;4.80;99.90;;;;;;5013711;28;20559;-77
2020/12/09 05:07:11;;;;;;;37.03;18.02;;;4.80;99.90;;;;;;5022495;28;20044;-78
2020/12/09 05:09:45;;;;;;;36.58;19.00;;;4.80;99.90;;;;;;5018090;28;20084;-77
2020/12/09 05:12:18;;;;;;;31.45;17.67;;;4.80;99.90;;;;;;5018364;28;20058;-77
2020/12/09 05:14:48;;;;;;;30.83;16.52;;;4.80;99.90;;;;;;5017056;28;20396;-76
2020/12/09 05:17:18;;;;;;;35.58;17.98;;;4.80;99.90;;;;;;5022943;28;20129;-76
2020/12/09 05:19:44;;;;;;;32.10;17.58;;;4.70;99.90;;;;;;5024242;28;20045;-76
2020/12/09 05:22:20;;;;;;;32.63;17.80;;;4.70;99.90;;;;;;5022243;28;20034;-76
2020/12/09 05:24:46;;;;;;;34.50;17.88;;;4.70;99.90;;;;;;5017973;28;20422;-77
2020/12/09 05:27:15;;;;;;;32.53;16.98;;;4.70;99.90;;;;;;5014008;28;20455;-76
2020/12/09 05:29:49;;;;;;;35.95;18.27;;;4.70;99.90;;;;;;5010223;28;20033;-77
2020/12/09 05:32:15;;;;;;;32.45;17.17;;;4.70;99.90;;;;;;5012209;28;20042;-75
2020/12/09 05:34:41;;;;;;;32.42;16.02;;;4.70;99.90;;;;;;5016430;28;20061;-76
2020/12/09 05:37:09;;;;;;;29.30;15.45;;;4.80;99.90;;;;;;5009250;28;20637;-77
2020/12/09 05:39:47;;;;;;;29.30;15.65;;;4.70;99.90;;;;;;5013793;28;20033;-76
2020/12/09 05:42:19;;;;;;;26.58;14.75;;;4.90;99.90;;;;;;5028489;28;20034;-76
2020/12/09 05:44:46;;;;;;;28.75;15.13;;;4.90;99.90;;;;;;5010545;28;20049;-75
2020/12/09 05:47:12;;;;;;;28.98;16.23;;;4.80;99.90;;;;;;5010012;28;20037;-74
2020/12/09 05:49:39;;;;;;;28.13;14.88;;;4.80;99.90;;;;;;5010252;28;20037;-75
2020/12/09 05:52:10;;;;;;;27.08;15.02;;;4.80;99.90;;;;;;5010065;28;20080;-76
2020/12/09 05:54:37;;;;;;;26.33;14.90;;;4.80;99.90;;;;;;5008396;28;20042;-76
2020/12/09 05:57:05;;;;;;;28.23;15.00;;;4.90;99.90;;;;;;5013187;28;20037;-75
2020/12/09 05:59:32;;;;;;;29.15;15.32;;;4.90;99.90;;;;;;5015549;28;20403;-76
2020/12/09 06:02:09;;;;;;;28.00;14.88;;;4.80;99.90;;;;;;5014664;28;20076;-75
2020/12/09 06:04:58;;;;;;;27.48;14.80;;;5.50;99.90;;;;;;5015314;28;20033;-75
2020/12/09 06:07:26;;;;;;;29.05;15.23;;;4.90;99.50;;;;;;5013356;28;20044;-76
2020/12/09 06:10:19;;;;;;;29.38;15.63;;;4.90;99.80;;;;;;5011559;28;20409;-74
2020/12/09 06:12:56;;;;;;;28.83;14.98;;;4.80;99.20;;;;;;5017204;28;20041;-75
2020/12/09 06:15:30;;;;;;;25.92;14.18;;;4.90;99.40;;;;;;5015394;28;20156;-75
2020/12/09 06:18:10;;;;;;;28.13;14.90;;;4.80;99.70;;;;;;5010566;28;20037;-75
2020/12/09 06:20:37;;;;;;;23.45;13.25;;;4.70;99.90;;;;;;5021120;28;20477;-75
2020/12/09 06:23:14;;;;;;;26.13;14.50;;;4.80;99.70;;;;;;5015064;28;20104;-75
2020/12/09 06:25:41;;;;;;;27.55;14.65;;;4.70;99.70;;;;;;5025936;28;20041;-75
2020/12/09 06:28:11;;;;;;;27.67;14.88;;;4.70;99.70;;;;;;5014233;28;20033;-75
2020/12/09 06:30:37;;;;;;;25.63;14.98;;;4.60;99.70;;;;;;5011084;28;20061;-74
2020/12/09 06:33:03;;;;;;;26.52;13.95;;;4.60;99.80;;;;;;5012737;28;20092;-74
2020/12/09 06:35:29;;;;;;;24.08;14.13;;;4.60;99.80;;;;;;5010407;28;20050;-74
2020/12/09 06:38:09;;;;;;;26.20;14.18;;;4.70;99.70;;;;;;5015676;28;20034;-74
2020/12/09 06:40:39;;;;;;;24.65;14.45;;;4.70;99.80;;;;;;5012714;28;20391;-74
2020/12/09 06:43:12;;;;;;;27.02;14.88;;;4.60;99.70;;;;;;5011862;28;20038;-74
2020/12/09 06:45:45;;;;;;;24.98;13.45;;;4.60;99.60;;;;;;5010814;28;20059;-76
2020/12/09 06:48:18;;;;;;;26.98;14.43;;;4.50;99.60;;;;;;5011409;28;20030;-75
2020/12/09 06:50:45;;;;;;;27.33;15.07;;;4.50;99.70;;;;;;5010809;28;20038;-76
2020/12/09 06:53:18;;;;;;;28.42;14.20;;;4.50;99.70;;;;;;5017125;28;20087;-75
2020/12/09 06:55:45;;;;;;;25.05;13.00;;;4.70;99.90;;;;;;5015458;28;20100;-75
2020/12/09 06:58:29;;;;;;;27.90;14.85;;;4.50;99.60;;;;;;5017032;28;20047;-75
2020/12/09 07:01:01;;;;;;;24.65;13.80;;;4.50;99.60;;;;;;5017983;28;20033;-76
2020/12/09 07:03:29;;;;;;;26.02;14.10;;;4.50;99.60;;;;;;5013538;28;20037;-75
2020/12/09 07:05:56;;;;;;;30.70;14.52;;;4.50;99.70;;;;;;5022976;28;20120;-75
2020/12/09 07:08:22;;;;;;;27.02;14.98;;;4.40;99.90;;;;;;5014120;28;20044;-75
2020/12/09 07:10:48;;;;;;;24.88;13.60;;;4.40;99.70;;;;;;5017613;28;20334;-76
2020/12/09 07:13:15;;;;;;;27.10;14.27;;;4.50;99.90;;;;;;5017724;28;20515;-75
2020/12/09 07:15:51;;;;;;;22.73;12.38;;;4.60;99.50;;;;;;5015650;28;20044;-75
2020/12/09 07:18:17;;;;;;;23.42;13.60;;;4.60;99.30;;;;;;5038260;28;20022;-75
2020/12/09 07:20:45;;;;;;;25.17;13.95;;;4.60;99.10;;;;;;5025856;28;20036;-76
2020/12/09 07:23:13;;;;;;;26.60;15.02;;;4.60;99.40;;;;;;5025086;28;20506;-76
2020/12/09 07:25:38;;;;;;;24.65;13.98;;;4.40;99.50;;;;;;5019585;28;20371;-75
2020/12/09 07:28:04;;;;;;;24.75;14.45;;;4.40;99.40;;;;;;5025620;28;20037;-74
2020/12/09 07:30:31;;;;;;;25.70;14.35;;;4.40;99.70;;;;;;5022116;28;20041;-75
2020/12/09 07:32:56;;;;;;;26.38;14.02;;;4.40;99.70;;;;;;5018443;28;20501;-76
2020/12/09 07:35:25;;;;;;;28.25;15.05;;;4.40;99.70;;;;;;5013578;28;20116;-75
2020/12/09 07:37:56;;;;;;;27.73;15.02;;;4.40;99.50;;;;;;5017021;28;20049;-76
2020/12/09 07:40:35;;;;;;;23.40;12.48;;;4.50;99.90;;;;;;5019995;28;20034;-75
2020/12/09 07:43:12;;;;;;;25.50;12.73;;;4.60;98.70;;;;;;5016016;28;20119;-74
2020/12/09 07:45:43;;;;;;;24.38;13.38;;;4.60;98.40;;;;;;5018042;28;20034;-75
2020/12/09 07:48:09;;;;;;;;;;;;;;;;;;5014783;28;20120;-75
2020/12/09 07:50:36;;;;;;;23.75;12.02;;;;;;;;;;5016261;28;20501;-75
2020/12/09 07:53:02;;;;;;;25.50;13.02;;;4.50;98.70;;;;;;5013475;28;20045;-76
2020/12/09 07:55:29;;;;;;;23.45;12.63;;;4.40;99.90;;;;;;5017550;28;20053;-76
2020/12/09 07:58:11;;;;;;;23.02;12.90;;;4.40;98.60;;;;;;5016255;28;20053;-75
2020/12/09 08:00:39;;;;;;;25.60;13.38;;;4.30;99.90;;;;;;5020778;28;20060;-76
2020/12/09 08:03:05;;;;;;;24.52;13.13;;;4.40;98.80;;;;;;5015908;28;20136;-76
2020/12/09 08:05:38;;;;;;;25.95;15.60;;;4.50;98.80;;;;;;5014872;28;20046;-75
2020/12/09 08:08:12;;;;;;;27.73;15.07;;;4.50;98.70;;;;;;5014531;28;20037;-76
2020/12/09 08:10:38;;;;;;;23.35;13.52;;;4.60;98.60;;;;;;5015782;28;20477;-75
2020/12/09 08:13:07;;;;;;;26.50;13.40;;;4.40;98.50;;;;;;5009438;28;20099;-76
2020/12/09 08:15:35;;;;;;;24.75;14.05;;;4.40;98.80;;;;;;5020652;28;20045;-74
2020/12/09 08:18:01;;;;;;;24.50;13.63;;;4.30;98.70;;;;;;5019532;28;20038;-76
2020/12/09 08:20:27;;;;;;;29.23;14.00;;;4.30;99.00;;;;;;5013680;28;20050;-75
2020/12/09 08:23:00;;;;;;;26.33;14.82;;;4.30;99.00;;;;;;5015813;28;20052;-75
2020/12/09 08:25:31;;;;;;;26.50;14.05;;;4.10;99.00;;;;;;5021078;28;20042;-75
2020/12/09 08:28:06;;;;;;;25.02;13.05;;;4.10;99.50;;;;;;5018033;28;20045;-76
2020/12/09 08:30:33;;;;;;;29.02;13.48;;;4.20;99.10;;;;;;5020032;28;20037;-75
2020/12/09 08:33:04;;;;;;;29.17;13.55;;;4.20;99.20;;;;;;5018536;28;20033;-75
2020/12/09 08:35:51;;;;;;;25.58;13.43;;;4.20;99.30;;;;;;5019610;28;20088;-75
2020/12/09 08:38:38;;;;;;;24.42;14.10;;;4.20;99.10;;;;;;5013459;28;20033;-77
2020/12/09 08:41:09;;;;;;;27.95;13.00;;;4.20;99.00;;;;;;5015797;28;20061;-77
2020/12/09 08:43:37;;;;;;;26.20;14.32;;;4.20;98.80;;;;;;5014273;28;20458;-75
2020/12/09 08:46:04;;;;;;;25.38;13.73;;;4.30;99.10;;;;;;5015834;28;20487;-77
2020/12/09 08:48:32;;;;;;;26.23;13.68;;;4.20;99.10;;;;;;5021006;28;20510;-78
2020/12/09 08:50:58;;;;;;;27.30;15.18;;;4.20;99.10;;;;;;5017208;28;20107;-76
2020/12/09 08:53:24;;;;;;;24.20;13.38;;;4.20;99.00;;;;;;5014679;28;20503;-77
2020/12/09 08:55:50;;;;;;;22.33;12.93;;;4.20;99.10;;;;;;5016408;28;20119;-78
2020/12/09 08:58:17;;;;;;;24.05;13.48;;;4.20;98.80;;;;;;5019775;28;20134;-77
2020/12/09 09:00:43;;;;;;;23.48;13.23;;;4.40;98.90;;;;;;5011890;28;21590;-77
2020/12/09 09:03:13;;;;;;;23.88;12.88;;;4.50;98.60;;;;;;5024283;28;20095;-77
2020/12/09 09:05:40;;;;;;;20.98;11.82;;;4.60;98.00;;;;;;5018972;28;20029;-78
2020/12/09 09:08:10;;;;;;;22.65;12.45;;;4.60;98.20;;;;;;5012510;28;20046;-76
2020/12/09 09:10:40;;;;;;;24.27;12.88;;;4.60;97.90;;;;;;5019667;28;20041;-76
2020/12/09 09:13:06;;;;;;;23.90;12.77;;;4.70;97.80;;;;;;5019421;28;20034;-77
2020/12/09 09:15:33;;;;;;;21.13;12.13;;;4.60;97.80;;;;;;5010718;28;20068;-76
2020/12/09 09:18:00;;;;;;;20.10;11.23;;;4.60;97.80;;;;;;5013840;28;20029;-75
2020/12/09 09:20:26;;;;;;;24.48;12.50;;;4.60;97.60;;;;;;5026323;28;20065;-75
2020/12/09 09:22:52;;;;;;;20.75;11.50;;;4.60;97.40;;;;;;5022136;28;20045;-75
2020/12/09 09:25:19;;;;;;;21.80;12.27;;;4.60;97.70;;;;;;5012457;28;20525;-76
2020/12/09 09:27:46;;;;;;;22.60;12.73;;;4.60;97.60;;;;;;5023059;28;20113;-77
2020/12/09 09:30:11;;;;;;;20.90;11.63;;;4.60;98.10;;;;;;5008591;28;20034;-77
2020/12/09 09:32:37;;;;;;;20.90;12.10;;;4.60;97.20;;;;;;5016159;28;20574;-75
2020/12/09 09:35:04;;;;;;;20.75;11.55;;;4.60;97.20;;;;;;5014354;28;20034;-76
2020/12/09 09:37:30;;;;;;;18.92;11.43;;;4.60;97.10;;;;;;5014225;28;20075;-75
2020/12/09 09:39:56;;;;;;;18.13;11.13;;;4.60;97.30;;;;;;5012012;28;20040;-76
2020/12/09 09:42:22;;;;;;;19.60;11.18;;;4.60;97.30;;;;;;5016678;28;20025;-76
2020/12/09 09:44:50;;;;;;;21.08;11.45;;;4.60;96.70;;;;;;5017306;28;20041;-74
2020/12/09 09:47:16;;;;;;;20.73;12.07;;;4.60;96.60;;;;;;5016778;28;20026;-75
2020/12/09 09:49:41;;;;;;;21.98;11.25;;;4.60;96.50;;;;;;5022744;28;20487;-76
2020/12/09 09:52:07;;;;;;;18.70;10.80;;;4.50;96.80;;;;;;5012394;28;20366;-77
2020/12/09 09:54:34;;;;;;;23.33;11.40;;;4.60;96.90;;;;;;5016708;28;20060;-77
2020/12/09 09:57:00;;;;;;;17.58;10.77;;;4.60;96.70;;;;;;5017315;28;20077;-76
2020/12/09 09:59:26;;;;;;;19.63;11.20;;;4.50;96.30;;;;;;5022930;28;20125;-76
2020/12/09 10:01:53;;;;;;;18.85;10.88;;;4.60;96.50;;;;;;5011610;28;20050;-77
2020/12/09 10:04:20;;;;;;;19.77;10.50;;;4.60;96.10;;;;;;5015399;28;20041;-76
2020/12/09 10:06:47;;;;;;;20.42;10.48;;;4.50;95.90;;;;;;5016415;28;20069;-75
2020/12/09 10:09:13;;;;;;;19.95;11.10;;;4.40;96.30;;;;;;5016256;28;20864;-75
2020/12/09 10:11:40;;;;;;;18.63;10.35;;;4.30;96.30;;;;;;5017048;28;20048;-75
2020/12/09 10:14:09;;;;;;;17.63;9.75;;;4.40;96.30;;;;;;5022454;28;20420;-77
2020/12/09 10:16:35;;;;;;;17.92;10.10;;;4.40;96.30;;;;;;5022720;28;20406;-77
2020/12/09 10:19:03;;;;;;;19.02;10.52;;;4.40;96.30;;;;;;5015988;28;20120;-74
2020/12/09 10:21:32;;;;;;;16.10;9.98;;;4.50;96.20;;;;;;5013040;28;20026;-76
2020/12/09 10:23:58;;;;;;;15.45;10.45;;;4.50;95.70;;;;;;5014643;28;20152;-75
2020/12/09 10:26:31;;;;;;;17.38;10.88;;;4.60;94.80;;;;;;5014292;28;20069;-75
2020/12/09 10:29:01;;;;;;;20.30;11.75;;;4.70;95.00;;;;;;5012129;28;20275;-79
2020/12/09 10:31:48;;;;;;;21.85;11.07;;;4.50;95.20;;;;;;5012358;28;20042;-76
2020/12/09 10:34:19;;;;;;;19.40;11.45;;;4.60;95.00;;;;;;5019475;28;20580;-76
2020/12/09 10:36:48;;;;;;;19.23;11.07;;;4.60;94.40;;;;;;5016552;28;20520;-75
2020/12/09 10:39:15;;;;;;;19.42;11.73;;;4.60;94.40;;;;;;5012978;28;20104;-76
2020/12/09 10:41:42;;;;;;;20.40;11.02;;;4.60;94.20;;;;;;5011530;28;20065;-75
2020/12/09 10:44:09;;;;;;;18.88;11.18;;;4.60;94.10;;;;;;5010740;28;20052;-75
2020/12/09 10:46:36;;;;;;;18.85;11.75;;;4.40;94.70;;;;;;5011623;28;20042;-75
2020/12/09 10:49:04;;;;;;;23.50;13.15;;;4.50;95.00;;;;;;5016022;28;20124;-76
2020/12/09 10:51:31;;;;;;;21.08;12.82;;;4.50;95.00;;;;;;5021394;28;20446;-75
2020/12/09 10:53:58;;;;;;;23.65;12.05;;;4.50;95.20;;;;;;5029209;28;20472;-74
2020/12/09 10:56:26;;;;;;;22.55;14.02;;;4.50;95.10;;;;;;5027007;28;20568;-76
2020/12/09 10:58:53;;;;;;;24.55;13.50;;;4.50;95.10;;;;;;5018862;28;20045;-76
2020/12/09 11:01:21;;;;;;;21.00;11.85;;;4.60;95.10;;;;;;5022235;28;20392;-76
2020/12/09 11:03:47;;;;;;;24.25;14.13;;;4.70;94.30;;;;;;5014423;28;20045;-75
2020/12/09 11:06:13;;;;;;;24.88;14.10;;;4.70;94.30;;;;;;5011081;28;20045;-74
2020/12/09 11:08:40;;;;;;;21.83;13.90;;;4.50;94.90;;;;;;5015186;28;20042;-74
2020/12/09 11:11:06;;;;;;;24.05;13.68;;;4.50;95.10;;;;;;5019014;28;20109;-76
2020/12/09 11:13:32;;;;;;;25.35;15.07;;;4.40;95.30;;;;;;5017945;28;20136;-74
2020/12/09 11:15:58;;;;;;;24.25;14.60;;;4.40;95.10;;;;;;5019179;28;20411;-76
2020/12/09 11:18:24;;;;;;;25.33;14.52;;;4.40;95.80;;;;;;5007183;28;20069;-76
2020/12/09 11:20:50;;;;;;;25.63;14.80;;;4.30;96.00;;;;;;5018550;28;20346;-75
2020/12/09 11:23:16;;;;;;;22.35;13.68;;;4.20;95.80;;;;;;5005753;28;20466;-75
2020/12/09 11:25:41;;;;;;;22.35;13.57;;;4.30;95.70;;;;;;5017070;28;20049;-76
2020/12/09 11:28:07;;;;;;;24.23;14.73;;;4.40;94.70;;;;;;5014248;28;20120;-78
2020/12/09 11:30:33;;;;;;;23.85;13.93;;;4.30;95.20;;;;;;5021071;28;20092;-76
2020/12/09 11:32:59;;;;;;;23.75;14.60;;;4.90;95.50;;;;;;5014831;28;20480;-77
2020/12/09 11:35:25;;;;;;;22.33;13.32;;;4.40;95.00;;;;;;5011448;28;20423;-76
2020/12/09 11:37:51;;;;;;;22.45;13.65;;;4.50;95.00;;;;;;5018491;28;20084;-77
2020/12/09 11:40:19;;;;;;;23.15;12.80;;;4.50;95.10;;;;;;5020106;28;20042;-76
2020/12/09 11:42:45;;;;;;;21.13;13.10;;;4.50;95.20;;;;;;5023096;28;20041;-76
2020/12/09 11:45:10;;;;;;;20.85;11.88;;;4.50;94.80;;;;;;5018485;28;20426;-78
2020/12/09 11:47:36;;;;;;;24.23;13.30;;;4.50;95.20;;;;;;5030604;28;20033;-76
2020/12/09 11:50:04;;;;;;;17.92;11.73;;;4.50;95.00;;;;;;5021087;28;20036;-76
2020/12/09 11:52:30;;;;;;;18.30;11.38;;;4.50;95.00;;;;;;5022477;28;20103;-77
2020/12/09 11:54:55;;;;;;;20.67;12.02;;;4.60;94.90;;;;;;5026608;28;20045;-75
2020/12/09 11:57:21;;;;;;;20.10;11.98;;;4.60;94.70;;;;;;5018312;28;20045;-76
2020/12/09 11:59:47;;;;;;;22.10;12.88;;;4.60;94.30;;;;;;5020759;28;20034;-76
2020/12/09 12:02:13;;;;;;;17.33;11.20;;;4.40;94.80;;;;;;5020530;28;20065;-76
2020/12/09 12:04:40;;;;;;;19.75;12.68;;;4.50;94.80;;;;;;5019826;28;20503;-76
2020/12/09 12:07:06;;;;;;;19.33;11.85;;;4.50;94.40;;;;;;5006357;28;20073;-76
2020/12/09 12:09:45;;;;;;;17.35;11.13;;;4.50;95.20;;;;;;5031558;28;20048;-77
2020/12/09 12:12:11;;;;;;;24.88;14.48;;;4.50;95.10;;;;;;5023987;28;20470;-76
2020/12/09 12:14:36;;;;;;;18.20;11.30;;;4.50;94.80;;;;;;5000244;28;20129;-76
2020/12/09 12:17:07;;;;;;;18.67;11.07;;;4.50;94.90;;;;;;5019932;28;20088;-76
2020/12/09 12:19:36;;;;;;;18.30;11.55;;;4.50;94.60;;;;;;5020648;28;20072;-76
2020/12/09 12:22:03;;;;;;;18.80;10.98;;;4.60;94.80;;;;;;5019888;28;20141;-74
2020/12/09 12:24:30;;;;;;;16.58;10.70;;;4.60;94.60;;;;;;5028448;28;20029;-75
2020/12/09 12:26:55;;;;;;;20.75;10.98;;;4.50;94.20;;;;;;5041884;28;20033;-75
2020/12/09 12:29:21;;;;;;;18.08;11.38;;;4.50;94.10;;;;;;5023202;28;20288;-76
2020/12/09 12:31:46;;;;;;;18.63;11.35;;;4.50;94.20;;;;;;5020355;28;20042;-77
2020/12/09 12:34:13;;;;;;;19.67;10.60;;;4.60;94.50;;;;;;5000609;28;20069;-75
2020/12/09 12:36:39;;;;;;;19.27;11.27;;;4.60;94.10;;;;;;5020923;28;20506;-75
2020/12/09 12:39:06;;;;;;;19.90;11.35;;;4.60;94.30;;;;;;5015415;28;20037;-77
2020/12/09 12:41:32;;;;;;;18.83;11.70;;;4.50;94.50;;;;;;5015708;28;20576;-74